createdAt,value
2019-04-10T00:01:51.768Z,20.20
2019-04-10T00:07:06.970Z,19.48
2019-04-10T00:12:00.989Z,20.55
2019-04-10T00:17:05.092Z,19.95
2019-04-10T00:22:09.702Z,18.52
2019-04-10T00:27:14.545Z,18.77
2019-04-10T00:32:18.216Z,19.48
2019-04-10T00:37:26.758Z,19.25
2019-04-10T00:42:27.491Z,20.30
2019-04-10T00:47:31.329Z,18.65
2019-04-10T00:52:34.904Z,18.60
2019-04-10T00:57:39.314Z,18.40
2019-04-10T01:02:43.301Z,18.15
2019-04-10T01:07:48.481Z,18.98
2019-04-10T01:12:54.451Z,18.67
2019-04-10T01:17:59.002Z,18.40
2019-04-10T01:23:03.589Z,17.70
2019-04-10T01:28:07.276Z,17.77
2019-04-10T01:33:10.925Z,19.07
2019-04-10T01:38:15.484Z,20.12
2019-04-10T01:43:20.016Z,15.58
2019-04-10T01:48:25.874Z,17.45
2019-04-10T01:53:30.039Z,18.42
2019-04-10T01:58:33.685Z,19.90
2019-04-10T02:03:38.212Z,18.70
2019-04-10T02:08:42.333Z,19.00
2019-04-10T02:13:46.254Z,17.77
2019-04-10T02:18:49.996Z,17.45
2019-04-10T02:23:54.515Z,16.50
2019-04-10T02:28:59.497Z,18.37
2019-04-10T02:34:04.809Z,17.95
2019-04-10T02:39:23.077Z,16.97
2019-04-10T02:44:16.220Z,16.87
2019-04-10T02:49:20.352Z,17.15
2019-04-10T02:54:25.135Z,17.90
2019-04-10T02:59:29.254Z,17.80
2019-04-10T03:04:33.152Z,18.95
2019-04-10T03:09:53.291Z,18.70
2019-04-10T03:14:45.165Z,17.75
2019-04-10T03:19:47.430Z,17.37
2019-04-10T03:24:51.025Z,18.20
2019-04-10T03:29:54.662Z,17.07
2019-04-10T03:35:08.580Z,17.70
2019-04-10T03:40:13.280Z,20.10
2019-04-10T03:45:16.873Z,17.62
2019-04-10T03:50:20.448Z,18.27
2019-04-10T03:55:25.136Z,17.70
2019-04-10T04:00:29.772Z,21.00
2019-04-10T04:05:34.977Z,18.40
2019-04-10T04:10:38.865Z,19.37
2019-04-10T04:15:42.472Z,21.70
2019-04-10T04:20:46.036Z,23.75
2019-04-10T04:25:50.411Z,21.33
2019-04-10T04:30:54.120Z,19.92
2019-04-10T04:35:57.732Z,23.70
2019-04-10T04:41:08.996Z,23.07
2019-04-10T04:46:14.148Z,21.35
2019-04-10T04:51:19.700Z,20.15
2019-04-10T04:56:23.998Z,21.55
2019-04-10T05:01:27.912Z,22.13
2019-04-10T05:06:31.475Z,19.67
2019-04-10T05:11:36.322Z,18.92
2019-04-10T05:16:41.568Z,21.95
2019-04-10T05:21:45.653Z,20.45
2019-04-10T05:26:49.482Z,19.67
2019-04-10T05:31:53.207Z,18.07
2019-04-10T05:36:57.068Z,20.60
2019-04-10T05:42:02.340Z,19.42
2019-04-10T05:47:05.874Z,13.38
2019-04-10T05:52:10.400Z,18.73
2019-04-10T05:57:14.349Z,17.32
2019-04-10T06:02:17.960Z,17.92
2019-04-10T06:07:21.536Z,17.80
2019-04-10T06:12:26.398Z,16.52
2019-04-10T06:17:30.299Z,17.17
2019-04-10T06:22:34.751Z,14.55
2019-04-10T06:27:38.884Z,13.83
2019-04-10T06:32:43.204Z,17.80
2019-04-10T06:37:46.943Z,17.25
2019-04-10T06:42:53.469Z,18.40
2019-04-10T06:47:55.970Z,20.92
2019-04-10T06:52:59.545Z,17.32
2019-04-10T06:58:03.121Z,16.45
2019-04-10T07:03:08.506Z,12.68
2019-04-10T07:08:17.217Z,17.52
2019-04-10T07:13:17.667Z,16.20
2019-04-10T07:18:21.998Z,15.75
2019-04-10T07:23:28.760Z,15.20
2019-04-10T07:28:30.928Z,14.70
2019-04-10T07:33:34.955Z,17.42
2019-04-10T07:38:39.292Z,15.60
2019-04-10T07:43:44.784Z,14.87
2019-04-10T07:48:48.613Z,15.50
2019-04-10T07:53:52.360Z,16.27
2019-04-10T07:58:56.084Z,15.25
2019-04-10T08:03:59.781Z,17.20
2019-04-10T08:09:05.087Z,15.35
2019-04-10T08:14:08.858Z,12.90
2019-04-10T08:19:12.723Z,15.38
2019-04-10T08:24:16.666Z,15.38
2019-04-10T08:29:20.233Z,17.60
2019-04-10T08:34:23.895Z,14.10
2019-04-10T08:39:36.861Z,13.48
2019-04-10T08:44:33.009Z,16.10
2019-04-10T08:49:36.812Z,16.77
2019-04-10T08:54:40.534Z,17.17
2019-04-10T08:59:46.816Z,15.95
2019-04-10T09:04:49.972Z,15.78
2019-04-10T09:09:54.169Z,15.08
2019-04-10T09:14:57.847Z,17.62
2019-04-10T09:20:02.566Z,14.98
2019-04-10T09:25:07.492Z,15.53
2019-04-10T09:30:11.464Z,18.00
2019-04-10T09:35:16.335Z,13.38
2019-04-10T09:40:20.508Z,17.57
2019-04-10T09:45:25.162Z,17.00
2019-04-10T09:50:31.062Z,13.22
2019-04-10T09:55:36.195Z,13.50
2019-04-10T10:00:40.252Z,15.75
2019-04-10T10:05:44.626Z,17.92
2019-04-10T10:10:49.898Z,19.82
2019-04-10T10:15:54.525Z,16.77
2019-04-10T10:20:59.769Z,19.32
2019-04-10T10:26:03.793Z,23.50
2019-04-10T10:31:08.175Z,14.55
2019-04-10T10:36:11.809Z,19.75
2019-04-10T10:41:15.463Z,17.40
2019-04-10T10:46:19.701Z,12.90
2019-04-10T10:51:23.506Z,11.53
2019-04-10T10:56:27.077Z,13.88
2019-04-10T11:01:31.671Z,18.57
2019-04-10T11:06:48.912Z,13.48
2019-04-10T11:11:41.004Z,13.30
2019-04-10T11:16:45.484Z,14.20
2019-04-10T11:21:49.670Z,14.33
2019-04-10T11:26:54.042Z,13.83
2019-04-10T11:31:58.119Z,15.08
2019-04-10T11:42:09.498Z,14.23
2019-04-10T11:47:12.708Z,12.88
2019-04-10T11:52:19.088Z,13.88
2019-04-10T11:57:22.862Z,13.35
2019-04-10T12:02:28.259Z,13.13
2019-04-10T12:12:37.584Z,15.40
2019-04-10T12:17:42.933Z,14.10
2019-04-10T12:22:46.731Z,14.03
2019-04-10T12:27:51.603Z,11.83
2019-04-10T12:32:55.486Z,12.10
2019-04-10T12:38:02.988Z,12.13
2019-04-10T12:43:06.835Z,12.78
2019-04-10T12:48:10.552Z,12.70
2019-04-10T12:53:14.206Z,12.33
2019-04-10T12:58:19.248Z,11.75
2019-04-10T13:03:23.307Z,11.73
2019-04-10T13:08:47.237Z,10.43
2019-04-10T13:13:33.834Z,12.23
2019-04-10T13:18:38.540Z,11.90
2019-04-10T13:23:42.521Z,10.48
2019-04-10T13:28:46.100Z,10.78
2019-04-10T13:33:50.978Z,12.00
2019-04-10T13:38:54.867Z,9.70
2019-04-10T13:43:58.482Z,11.70
2019-04-10T13:49:02.083Z,13.38
2019-04-10T13:54:06.241Z,15.60
2019-04-10T13:59:10.953Z,12.40
2019-04-10T14:04:14.783Z,12.15
2019-04-10T14:09:34.855Z,19.95
2019-04-10T14:19:31.892Z,11.73
2019-04-10T14:24:42.771Z,15.15
2019-04-10T14:29:41.156Z,13.28
2019-04-10T14:34:44.944Z,11.88
2019-04-10T14:39:49.385Z,12.18
2019-04-10T14:44:53.167Z,12.20
2019-04-10T14:49:57.947Z,12.65
2019-04-10T14:55:02.075Z,10.75
2019-04-10T15:00:12.682Z,8.98
2019-04-10T15:05:17.331Z,12.73
2019-04-10T15:10:21.920Z,11.60
2019-04-10T15:15:26.005Z,10.30
2019-04-10T15:20:29.868Z,13.18
2019-04-10T15:25:33.798Z,12.18
2019-04-10T15:30:37.358Z,13.03
2019-04-10T15:35:41.795Z,13.60
2019-04-10T15:40:46.177Z,12.33
2019-04-10T15:45:50.441Z,13.62
2019-04-10T15:50:54.195Z,13.20
2019-04-10T15:55:57.869Z,14.87
2019-04-10T16:01:02.445Z,11.70
2019-04-10T16:06:06.447Z,11.63
2019-04-10T16:11:28.399Z,15.20
2019-04-10T16:16:36.972Z,13.55
2019-04-10T16:21:41.476Z,13.90
2019-04-10T16:26:45.415Z,14.40
2019-04-10T16:31:53.109Z,14.93
2019-04-10T16:37:00.103Z,15.60
2019-04-10T16:42:06.418Z,12.10
2019-04-10T16:47:12.115Z,16.37
2019-04-10T16:52:16.835Z,15.15
2019-04-10T16:57:20.715Z,14.30
2019-04-10T17:02:24.456Z,15.58
2019-04-10T17:07:28.034Z,15.48
2019-04-10T17:12:31.714Z,14.18
2019-04-10T17:17:42.270Z,12.90
2019-04-10T17:22:49.162Z,14.53
2019-04-10T17:27:52.059Z,12.78
2019-04-10T17:32:56.374Z,12.75
2019-04-10T17:38:00.262Z,17.20
2019-04-10T17:43:05.943Z,14.93
2019-04-10T17:48:09.719Z,16.20
2019-04-10T17:53:14.805Z,15.50
2019-04-10T17:58:19.203Z,15.43
2019-04-10T18:03:23.553Z,12.80
2019-04-10T18:08:29.741Z,15.20
2019-04-10T18:13:32.338Z,14.65
2019-04-10T18:18:35.956Z,17.00
2019-04-10T18:23:39.799Z,18.00
2019-04-10T18:28:44.081Z,16.25
2019-04-10T18:33:48.875Z,17.82
2019-04-10T18:38:52.895Z,18.48
2019-04-10T18:43:57.003Z,16.82
2019-04-10T18:49:00.559Z,17.50
2019-04-10T18:54:04.333Z,18.65
2019-04-10T18:59:13.009Z,18.10
2019-04-10T19:04:22.362Z,17.75
2019-04-10T19:09:28.676Z,18.70
2019-04-10T19:14:36.166Z,17.20
2019-04-10T19:19:40.362Z,16.85
2019-04-10T19:24:44.172Z,16.87
2019-04-10T19:29:48.727Z,19.65
2019-04-10T19:34:52.552Z,18.17
2019-04-10T19:39:56.565Z,16.70
2019-04-10T19:45:01.641Z,16.87
2019-04-10T19:50:06.216Z,15.95
2019-04-10T19:55:09.976Z,16.07
2019-04-10T20:00:14.538Z,16.97
2019-04-10T20:05:18.486Z,15.60
2019-04-10T20:10:22.055Z,15.53
2019-04-10T20:15:26.633Z,13.25
2019-04-10T20:20:31.115Z,17.25
2019-04-10T20:25:34.776Z,14.70
2019-04-10T20:30:38.463Z,17.52
2019-04-10T20:35:42.536Z,16.57
2019-04-10T20:40:46.399Z,18.20
2019-04-10T20:45:50.354Z,18.90
2019-04-10T20:50:54.873Z,19.50
2019-04-10T20:55:58.508Z,18.48
2019-04-10T21:01:02.250Z,18.02
2019-04-10T21:06:06.922Z,18.70
2019-04-10T21:11:11.625Z,18.32
2019-04-10T21:16:15.662Z,18.95
2019-04-10T21:21:19.337Z,19.70
2019-04-10T21:26:23.935Z,18.57
2019-04-10T21:31:29.187Z,18.30
2019-04-10T21:36:34.953Z,20.17
2019-04-10T21:41:39.024Z,18.02
2019-04-10T21:46:43.013Z,20.60
2019-04-10T21:51:46.603Z,18.57
2019-04-10T21:56:51.405Z,20.00
2019-04-10T22:01:55.511Z,19.57
2019-04-10T22:07:16.753Z,21.05
2019-04-10T22:12:28.588Z,19.07
2019-04-10T22:17:27.245Z,17.52
2019-04-10T22:22:30.987Z,19.20
2019-04-10T22:27:35.838Z,15.48
2019-04-10T22:32:40.692Z,15.90
2019-04-10T22:37:44.565Z,16.95
2019-04-10T22:42:49.595Z,14.87
2019-04-10T22:47:54.237Z,16.60
2019-04-10T22:52:59.107Z,15.38
2019-04-10T22:58:03.010Z,14.68
2019-04-10T23:03:06.592Z,14.75
2019-04-10T23:08:11.449Z,15.93
2019-04-10T23:13:18.053Z,14.28
2019-04-10T23:18:21.959Z,12.47
2019-04-10T23:23:25.682Z,13.13
2019-04-10T23:28:29.474Z,13.45
2019-04-10T23:33:34.478Z,14.60
2019-04-10T23:38:38.232Z,13.88
2019-04-10T23:43:42.206Z,14.03
2019-04-10T23:48:46.770Z,12.23
2019-04-10T23:53:50.935Z,15.72
2019-04-10T23:58:54.681Z,12.55
